This is the latest recevied weather packets stored in our database for station/object WC4PEM-1. If no packets are shown the sender has not sent any weather packets the latest 10 day(s).
| Time | Temp. | Humidity | Pressure | Rain* | Wind** | Luminosity | Snow |
|---|---|---|---|---|---|---|---|
| 1777920958 | 27.22° C | 51% | 1014.3 hPa | 0 mm | - | 346 W/m² | - |
| 1777920806 | 27.22° C | 51% | 1014.3 hPa | 0 mm | - | 346 W/m² | - |
| 1777920506 | 27.22° C | 51% | 1014.4 hPa | 0 mm | - | 346 W/m² | - |
| 1777920206 | 27.22° C | 51% | 1014.5 hPa | 0 mm | - | 1074 W/m² | - |
| 1777919906 | 27.22° C | 51% | 1014.6 hPa | 0 mm | - | 262 W/m² | - |
| 1777919606 | 27.78° C | 49% | 1014.7 hPa | 0 mm | - | 264 W/m² | - |
| 1777919306 | 28.33° C | 47% | 1014.7 hPa | 0 mm | - | 1127 W/m² | - |
| 1777919006 | 27.78° C | 48% | 1014.8 hPa | 0 mm | - | 1062 W/m² | - |
| 1777918706 | 27.78° C | 50% | 1014.9 hPa | 0 mm | - | 306 W/m² | - |
| 1777918406 | 27.22° C | 50% | 1015 hPa | 0 mm | - | 1136 W/m² | - |
| 1777918394 | 27.22° C | 50% | 1015.1 hPa | 0 mm | - | 411 W/m² | - |
| 1777918106 | 26.67° C | 50% | 1014.9 hPa | 0 mm | - | 1049 W/m² | - |
| 1777917806 | 27.78° C | 49% | 1015 hPa | 0 mm | - | 299 W/m² | - |
| 1777917506 | 27.22° C | 51% | 1014.9 hPa | 0 mm | - | 1215 W/m² | - |
| 1777917206 | 27.22° C | 50% | 1015.1 hPa | 0 mm | - | 411 W/m² | - |
| 1777916906 | 27.78° C | 47% | 1015.2 hPa | 0 mm | - | 355 W/m² | - |
| 1777916606 | 27.78° C | 47% | 1015.3 hPa | 0 mm | - | 329 W/m² | - |
| 1777916306 | 27.78° C | 47% | 1015.3 hPa | 0 mm | - | 329 W/m² | - |
| 1777916006 | 27.78° C | 46% | 1015.3 hPa | 0 mm | - | 1129 W/m² | - |
| 1777915706 | 27.22° C | 46% | 1015.5 hPa | 0 mm | - | 1181 W/m² | - |
| 1777915689 | 27.22° C | 47% | 1015.3 hPa | 0 mm | - | 475 W/m² | - |
| 1777915406 | 27.22° C | 47% | 1015.3 hPa | 0 mm | - | 475 W/m² | - |
| 1777915106 | 27.22° C | 46% | 1015.4 hPa | 0 mm | - | 1213 W/m² | - |
| 1777914806 | 27.22° C | 48% | 1015.4 hPa | 0 mm | - | 332 W/m² | - |
| 1777914506 | 27.22° C | 47% | 1015.4 hPa | 0 mm | - | 1134 W/m² | - |
* Rain latest hour (hover to see other rain measurements)
** Current wind speed in m/s (hover to see current wind gust speed)